Terminal Aerodrome Forecast
Issued by NWS

Home | Current Version | Previous Version | Text Only | Print | Product List | Glossary On
Versions: 1 2 3 4 5 6 7 8 9 10 11 12 13 14
471
FTUS43 KAPX 250539
TAFTVC
TAF
KTVC 250539Z 2506/2606 29005KT P6SM SCT050 BKN200
     FM251400 29008KT P6SM SKC
     FM251700 30011G19KT P6SM SCT040
     FM260000 31006KT P6SM SKC=

USA.gov is the U.S. government's official web portal to all federal, state and local government web resources and services.